Time;durP1;ratioP1;P1;durP2;ratioP2;P2;SDS_P1;SDS_P2;PMS_P1;PMS_P2;Temp;Humidity;BMP_temperature;BMP_pressure;BME280_temperature;BME280_humidity;BME280_pressure;Samples;Min_cycle;Max_cycle;Signal;HPM_P1;HPM_P2
2022/09/23 00:00:44;;;;;;;6.63;4.10;;;;;;;6.92;100.00;96506.69;5031418;28;20037;-74
2022/09/23 00:03:10;;;;;;;6.23;3.80;;;;;;;6.85;100.00;96513.41;5028552;28;21383;-74
2022/09/23 00:05:36;;;;;;;6.67;3.60;;;;;;;6.75;100.00;96505.50;5025943;28;20032;-74
2022/09/23 00:08:06;;;;;;;6.30;3.73;;;;;;;6.79;100.00;96501.66;5010269;28;20028;-74
2022/09/23 00:10:36;;;;;;;6.23;3.27;;;;;;;6.75;100.00;96505.50;5025873;28;20063;-74
2022/09/23 00:13:02;;;;;;;6.00;3.63;;;;;;;6.75;100.00;96510.72;5028895;28;20064;-73
2022/09/23 00:15:30;;;;;;;8.37;3.60;;;;;;;6.71;100.00;96509.34;5026976;28;20075;-73
2022/09/23 00:17:56;;;;;;;6.40;3.33;;;;;;;6.74;100.00;96503.84;5032922;28;20037;-74
2022/09/23 00:20:22;;;;;;;6.13;3.40;;;;;;;6.69;100.00;96500.78;5034347;28;20037;-73
2022/09/23 00:22:48;;;;;;;5.70;3.37;;;;;;;6.72;100.00;96510.97;4998530;28;20105;-74
2022/09/23 00:25:14;;;;;;;6.77;3.47;;;;;;;6.65;100.00;96503.78;4998232;28;20056;-74
2022/09/23 00:27:41;;;;;;;5.90;3.50;;;;;;;6.67;100.00;96502.69;4991666;28;20039;-74
2022/09/23 00:30:08;;;;;;;7.23;3.40;;;;;;;6.64;100.00;96508.19;4992901;28;20064;-75
2022/09/23 00:32:35;;;;;;;5.70;3.53;;;;;;;6.66;100.00;96506.25;4993775;28;20033;-74
2022/09/23 00:35:02;;;;;;;6.20;3.17;;;;;;;6.64;100.00;96508.19;4996285;28;20461;-75
2022/09/23 00:37:29;;;;;;;5.90;3.63;;;;;;;6.61;100.00;96509.28;4993399;28;20044;-74
2022/09/23 00:39:54;;;;;;;5.27;3.67;;;;;;;6.49;100.00;96499.84;4995396;28;20075;-73
2022/09/23 00:42:22;;;;;;;5.50;3.53;;;;;;;6.57;100.00;96499.19;4996497;28;20553;-74
2022/09/23 00:44:50;;;;;;;5.87;3.60;;;;;;;6.49;100.00;96504.22;5002490;28;20067;-74
2022/09/23 00:47:34;;;;;;;5.07;3.30;;;;;;;6.57;100.00;96491.34;5031870;28;20025;-74
2022/09/23 00:50:30;;;;;;;5.43;3.40;;;;;;;6.52;100.00;96490.91;5033817;28;20553;-74
2022/09/23 00:52:58;;;;;;;7.23;3.60;;;;;;;6.45;100.00;96487.97;5058004;28;20722;-73
2022/09/23 00:55:47;;;;;;;6.57;3.90;;;;;;;6.50;100.00;96487.59;5059941;28;20040;-74
2022/09/23 00:58:17;;;;;;;6.30;3.90;;;;;;;6.41;100.00;96488.38;5057797;28;20040;-74
2022/09/23 01:00:45;;;;;;;6.53;3.40;;;;;;;6.38;100.00;96484.22;5051129;28;20159;-74
2022/09/23 01:03:12;;;;;;;7.07;4.10;;;;;;;6.49;100.00;96488.56;5058489;28;20036;-74
2022/09/23 01:05:38;;;;;;;6.87;3.47;;;;;;;6.51;100.00;96484.88;5058833;28;20086;-74
2022/09/23 01:08:07;;;;;;;5.67;3.63;;;;;;;6.47;100.00;96483.47;5057850;28;21330;-74
2022/09/23 01:10:48;;;;;;;5.87;3.00;;;;;;;6.52;100.00;96488.31;5055787;28;20107;-74
2022/09/23 01:13:25;;;;;;;7.10;3.53;;;;;;;6.42;100.00;96477.78;5054785;28;20032;-74
2022/09/23 01:16:00;;;;;;;7.20;3.63;;;;;;;6.44;100.00;96477.66;5053039;28;20039;-74
2022/09/23 01:18:47;;;;;;;9.10;3.40;;;;;;;6.44;100.00;96473.28;5061590;28;20435;-74
2022/09/23 01:21:17;;;;;;;6.17;3.47;;;;;;;6.46;100.00;96473.13;5057374;28;20238;-74
2022/09/23 01:24:04;;;;;;;5.93;3.13;;;;;;;6.48;100.00;96471.22;5039243;28;20040;-74
2022/09/23 01:26:45;;;;;;;7.40;3.80;;;;;;;6.49;100.00;96470.28;5058453;28;20025;-74
2022/09/23 01:29:38;;;;;;;5.50;2.77;;;;;;;6.51;100.00;96469.19;5056449;28;20584;-74
2022/09/23 01:32:36;;;;;;;5.70;3.38;;;;;;;6.51;100.00;96463.97;5056589;28;20685;-74
2022/09/23 01:35:25;;;;;;;7.67;3.33;;;;;;;6.57;100.00;96471.28;5060872;28;20036;-74
2022/09/23 01:38:14;;;;;;;6.03;3.40;;;;;;;6.54;100.00;96468.13;5061612;28;20033;-74
2022/09/23 01:40:58;;;;;;;6.30;4.00;;;;;;;6.52;100.00;96473.44;5055292;28;20052;-74
2022/09/23 01:43:41;;;;;;;6.28;3.67;;;;;;;6.47;100.00;96470.41;5058847;28;20028;-74
2022/09/23 01:46:31;;;;;;;6.10;3.22;;;;;;;6.53;100.00;96464.66;5017113;28;20056;-75
2022/09/23 01:49:05;;;;;;;5.57;3.10;;;;;;;6.66;100.00;96459.22;5023414;28;21116;-74
2022/09/23 01:51:36;;;;;;;6.07;3.60;;;;;;;6.63;100.00;96461.28;5023028;28;20107;-74
2022/09/23 01:54:27;;;;;;;7.63;3.50;;;;;;;6.71;100.00;96445.78;5021466;28;20036;-73
2022/09/23 01:57:00;;;;;;;6.07;2.87;;;;;;;6.83;100.00;96461.22;5023606;28;20036;-73
2022/09/23 01:59:39;;;;;;;6.38;3.78;;;;;;;6.78;100.00;96452.97;5022465;28;21563;-74
2022/09/23 02:02:20;;;;;;;7.47;3.80;;;;;;;6.70;100.00;96455.38;5024091;28;20032;-73
2022/09/23 02:04:56;;;;;;;5.70;3.20;;;;;;;6.76;100.00;96459.28;5026054;28;20032;-74
2022/09/23 02:07:58;;;;;;;7.80;3.57;;;;;;;6.76;100.00;96457.50;5021855;28;20118;-73
2022/09/23 02:10:46;;;;;;;6.30;3.87;;;;;;;6.76;100.00;96454.88;5023774;28;20029;-73
2022/09/23 02:13:28;;;;;;;5.63;3.43;;;;;;;6.85;100.00;96456.72;5027440;28;20150;-73
2022/09/23 02:16:00;;;;;;;9.27;5.10;;;;;;;6.77;100.00;96453.94;5045846;28;20058;-73
2022/09/23 02:18:33;;;;;;;7.43;3.83;;;;;;;6.73;100.00;96456.91;5065240;28;20089;-73
2022/09/23 02:21:04;;;;;;;6.40;3.97;;;;;;;6.79;100.00;96453.78;5058389;28;20161;-73
2022/09/23 02:23:40;;;;;;;6.20;3.73;;;;;;;6.78;100.00;96452.97;5063096;28;20036;-74
2022/09/23 02:26:16;;;;;;;7.57;4.13;;;;;;;6.69;100.00;96453.75;5055409;28;20040;-74
2022/09/23 02:28:42;;;;;;;6.57;4.03;;;;;;;6.65;100.00;96459.38;5058144;28;20112;-74
2022/09/23 02:31:36;;;;;;;6.37;4.00;;;;;;;6.60;100.00;96449.28;5060110;28;20463;-74
2022/09/23 02:34:31;;;;;;;8.03;3.67;;;;;;;6.61;100.00;96445.72;5062941;28;20124;-74
2022/09/23 02:37:34;;;;;;;7.00;4.57;;;;;;;6.54;100.00;96447.22;5058683;28;20028;-74
2022/09/23 02:40:06;;;;;;;5.53;3.47;;;;;;;6.49;100.00;96449.38;5059658;28;20047;-75
2022/09/23 02:42:59;;;;;;;7.43;4.23;;;;;;;6.44;100.00;96441.94;5055740;28;20491;-74
2022/09/23 02:45:24;;;;;;;7.30;4.13;;;;;;;6.48;100.00;96450.34;5051227;28;20035;-74
2022/09/23 02:48:04;;;;;;;8.30;4.07;;;;;;;6.51;100.00;96443.06;5022627;28;21596;-75
2022/09/23 02:50:31;;;;;;;6.13;4.23;;;;;;;6.67;100.00;96445.19;5020238;28;20040;-75
2022/09/23 02:52:58;;;;;;;8.23;4.13;;;;;;;6.67;100.00;96439.97;5028339;28;21289;-75
2022/09/23 02:55:30;;;;;;;6.70;4.10;;;;;;;6.66;100.00;96438.31;5034803;28;20063;-75
2022/09/23 02:57:56;;;;;;;7.27;4.03;;;;;;;6.68;100.00;96430.38;5035713;28;20041;-75
2022/09/23 03:00:22;;;;;;;8.33;4.47;;;;;;;6.71;100.00;96435.34;5033383;28;20035;-75
2022/09/23 03:02:57;;;;;;;8.43;4.77;;;;;;;6.68;100.00;96428.56;5033503;28;20047;-76
2022/09/23 03:05:30;;;;;;;7.73;4.43;;;;;;;6.79;100.00;96432.88;5042021;28;22305;-75
2022/09/23 03:08:01;;;;;;;7.00;4.30;;;;;;;6.77;100.00;96427.81;5032417;28;20037;-75
2022/09/23 03:10:42;;;;;;;7.77;4.70;;;;;;;6.58;100.00;96425.91;5028538;28;20461;-75
2022/09/23 03:13:28;;;;;;;6.83;3.83;;;;;;;6.53;100.00;96425.47;5031044;28;20398;-75
2022/09/23 03:16:38;;;;;;;7.40;4.23;;;;;;;6.43;100.00;96426.38;5039415;28;20039;-74
2022/09/23 03:19:18;;;;;;;8.03;5.27;;;;;;;6.58;100.00;96425.09;5056615;28;20067;-75
2022/09/23 03:21:52;;;;;;;8.53;4.60;;;;;;;6.52;100.00;96425.59;5057173;28;20064;-74
2022/09/23 03:24:20;;;;;;;9.63;5.17;;;;;;;6.49;100.00;96429.28;5053403;28;20028;-74
2022/09/23 03:26:47;;;;;;;7.27;4.73;;;;;;;6.47;100.00;96423.38;5053559;28;20036;-74
2022/09/23 03:29:15;;;;;;;8.90;4.57;;;;;;;6.55;100.00;96422.72;5057445;28;20029;-74
2022/09/23 03:31:43;;;;;;;7.07;4.07;;;;;;;6.61;100.00;96419.59;5049519;28;20032;-75
2022/09/23 03:34:31;;;;;;;7.43;3.97;;;;;;;6.64;100.00;96421.09;5055208;28;20028;-75
2022/09/23 03:37:04;;;;;;;10.60;4.50;;;;;;;6.64;100.00;96418.50;5056166;28;20043;-75
2022/09/23 03:39:41;;;;;;;6.32;3.63;;;;;;;6.47;100.00;96417.31;5052532;28;20111;-74
2022/09/23 03:42:23;;;;;;;7.67;5.00;;;;;;;6.41;100.00;96415.25;5056560;28;20063;-75
2022/09/23 03:44:55;;;;;;;7.33;4.73;;;;;;;6.35;100.00;96412.16;5057334;28;20033;-74
2022/09/23 03:47:22;;;;;;;9.50;5.50;;;;;;;6.38;100.00;96411.91;5049732;28;20562;-75
2022/09/23 03:49:49;;;;;;;10.43;4.97;;;;;;;6.42;100.00;96409.03;5039709;28;21194;-75
2022/09/23 03:52:16;;;;;;;6.60;4.23;;;;;;;6.40;100.00;96413.56;5037485;28;20060;-75
2022/09/23 03:54:42;;;;;;;8.17;4.80;;;;;;;6.36;100.00;96410.38;5036270;28;20031;-74
2022/09/23 03:57:10;;;;;;;8.40;4.50;;;;;;;6.42;100.00;96409.03;5036299;28;20040;-75
2022/09/23 03:59:36;;;;;;;7.43;4.17;;;;;;;6.38;100.00;96411.91;5036916;28;20482;-75
2022/09/23 04:02:03;;;;;;;7.03;4.30;;;;;;;6.40;100.00;96408.34;5042125;28;20096;-75
2022/09/23 04:04:31;;;;;;;7.47;4.40;;;;;;;6.38;100.00;96403.25;5035282;28;20028;-75
2022/09/23 04:06:57;;;;;;;7.00;5.00;;;;;;;6.53;100.00;96401.13;5013485;28;20083;-74
2022/09/23 04:09:23;;;;;;;8.30;4.77;;;;;;;6.54;100.00;96402.78;5004867;28;21294;-74
2022/09/23 04:11:49;;;;;;;7.10;4.60;;;;;;;6.44;100.00;96397.53;5003681;28;20155;-75
2022/09/23 04:14:16;;;;;;;8.60;5.53;;;;;;;6.47;100.00;96393.78;5006643;28;20038;-75
2022/09/23 04:16:42;;;;;;;7.60;5.23;;;;;;;6.35;100.00;96393.88;5027350;28;20646;-74
2022/09/23 04:19:09;;;;;;;6.90;4.97;;;;;;;6.42;100.00;96398.59;5037740;28;20109;-74
2022/09/23 04:21:35;;;;;;;7.70;4.90;;;;;;;6.34;100.00;96387.00;5037857;28;20036;-74
2022/09/23 04:24:02;;;;;;;7.87;4.63;;;;;;;6.31;100.00;96396.91;5038108;28;20048;-74
2022/09/23 04:26:27;;;;;;;9.10;5.53;;;;;;;6.24;100.00;96390.53;5039819;28;21308;-74
2022/09/23 04:28:54;;;;;;;8.33;5.07;;;;;;;6.23;100.00;96384.44;5037163;28;20060;-74
2022/09/23 04:31:22;;;;;;;8.07;5.20;;;;;;;6.10;100.00;96386.44;5036673;28;20078;-74
2022/09/23 04:33:49;;;;;;;7.43;5.20;;;;;;;6.16;100.00;96383.31;5038636;28;21402;-74
2022/09/23 04:36:15;;;;;;;9.77;5.57;;;;;;;6.14;100.00;96374.81;5042148;28;20036;-74
2022/09/23 04:38:48;;;;;;;8.30;5.10;;;;;;;6.12;100.00;96392.38;5060777;28;20037;-74
2022/09/23 04:41:15;;;;;;;11.10;5.45;;;;;;;6.09;100.00;96387.41;5055232;28;20120;-74
2022/09/23 04:43:41;;;;;;;7.40;5.00;;;;;;;6.07;100.00;96386.69;5061881;28;20036;-75
2022/09/23 04:46:10;;;;;;;7.83;5.00;;;;;;;6.16;100.00;96385.94;5042872;28;20496;-75
2022/09/23 04:48:37;;;;;;;8.67;4.80;;;;;;;6.16;100.00;96396.38;5024171;28;22523;-75
2022/09/23 04:51:14;;;;;;;9.50;5.30;;;;;;;6.12;100.00;96387.16;5022413;28;20771;-74
2022/09/23 04:53:42;;;;;;;8.30;5.23;;;;;;;6.03;100.00;96393.94;5027683;28;20044;-75
2022/09/23 04:56:11;;;;;;;8.27;5.10;;;;;;;6.04;100.00;96394.81;5038946;28;20045;-75
2022/09/23 04:58:38;;;;;;;8.13;5.63;;;;;;;6.06;100.00;96400.72;5040624;28;20025;-74
2022/09/23 05:01:15;;;;;;;9.83;5.30;;;;;;;6.06;100.00;96398.09;5046820;28;20032;-75
2022/09/23 05:03:42;;;;;;;9.03;4.67;;;;;;;6.06;100.00;96398.09;5047535;28;20051;-72
2022/09/23 05:06:10;;;;;;;8.80;5.27;;;;;;;6.01;100.00;96395.06;5043453;28;21071;-71
2022/09/23 05:08:36;;;;;;;8.47;5.77;;;;;;;5.98;100.00;96400.53;5039669;28;20039;-71
2022/09/23 05:11:06;;;;;;;9.37;5.63;;;;;;;5.93;100.00;96397.44;5005333;28;20074;-73
2022/09/23 05:13:32;;;;;;;8.23;5.50;;;;;;;5.93;100.00;96394.84;5003298;28;20867;-71
2022/09/23 05:16:03;;;;;;;10.37;5.80;;;;;;;5.84;100.00;96394.63;5012212;28;22510;-71
2022/09/23 05:18:33;;;;;;;8.27;5.47;;;;;;;5.91;100.00;96393.16;5034072;28;20095;-72
2022/09/23 05:20:59;;;;;;;8.40;5.23;;;;;;;5.98;100.00;96393.53;5037635;28;20037;-72
2022/09/23 05:23:26;;;;;;;9.77;5.27;;;;;;;6.34;100.00;96391.41;5035698;28;20082;-72
2022/09/23 05:26:06;;;;;;;9.10;5.50;;;;;;;6.54;100.00;96393.16;5032413;28;20433;-75
2022/09/23 05:28:34;;;;;;;8.20;4.90;;;;;;;6.87;100.00;96388.59;5036388;28;20171;-76
2022/09/23 05:31:14;;;;;;;8.80;5.50;;;;;;;7.28;100.00;96374.56;5034603;28;20043;-75
2022/09/23 05:33:42;;;;;;;7.87;5.00;;;;;;;7.55;100.00;96378.28;5031785;28;20033;-75
2022/09/23 05:36:08;;;;;;;7.20;4.97;;;;;;;7.88;100.00;96379.69;5029510;28;20025;-71
2022/09/23 05:38:35;;;;;;;8.50;5.07;;;;;;;8.21;100.00;96367.88;5052716;28;20033;-77
2022/09/23 05:41:04;;;;;;;7.70;5.60;;;;;;;7.80;100.00;96367.25;5047573;28;20111;-76
2022/09/23 05:43:30;;;;;;;7.03;4.63;;;;;;;8.15;100.00;96362.38;5052128;28;20111;-75
2022/09/23 05:46:21;;;;;;;9.93;5.13;;;;;;;8.25;100.00;96371.09;5066532;28;20397;-77
2022/09/23 05:48:48;;;;;;;9.23;5.20;;;;;;;8.68;100.00;96370.53;5062664;28;20465;-77
2022/09/23 05:51:19;;;;;;;9.07;5.07;;;;;;;8.71;100.00;96367.63;5067931;28;20037;-77
2022/09/23 05:53:45;;;;;;;7.60;5.17;;;;;;;8.79;100.00;96379.22;5060402;28;20040;-77
2022/09/23 05:56:13;;;;;;;9.23;4.80;;;;;;;8.77;100.00;96371.47;5065568;28;20052;-74
2022/09/23 05:58:39;;;;;;;7.40;4.60;;;;;;;8.94;100.00;96369.88;5066855;28;20422;-76
2022/09/23 06:01:16;;;;;;;10.70;4.60;;;;;;;8.65;100.00;96378.72;5069419;28;20107;-76
2022/09/23 06:03:48;;;;;;;11.20;5.63;;;;;;;8.80;100.00;96379.06;5062869;28;20043;-75
2022/09/23 06:06:16;;;;;;;8.93;5.50;;;;;;;8.68;100.00;96373.16;5064221;28;20476;-77
2022/09/23 06:08:43;;;;;;;8.67;4.53;;;;;;;8.77;100.00;96376.72;5067703;28;20044;-77
2022/09/23 06:11:11;;;;;;;7.67;5.07;;;;;;;8.75;100.00;96373.41;5049694;28;20067;-76
2022/09/23 06:13:37;;;;;;;9.97;5.57;;;;;;;9.06;100.00;96368.72;5067447;28;20043;-75
2022/09/23 06:16:06;;;;;;;10.43;5.53;;;;;;;9.92;100.00;96370.88;5066729;28;20021;-75
2022/09/23 06:18:33;;;;;;;9.33;5.67;;;;;;;10.11;100.00;96367.25;5065352;28;20033;-74
2022/09/23 06:21:03;;;;;;;9.93;5.80;;;;;;;10.06;100.00;96374.75;5060011;28;20028;-75
2022/09/23 06:23:30;;;;;;;9.40;5.27;;;;;;;9.75;100.00;96369.09;5067936;28;20153;-76
2022/09/23 06:26:00;;;;;;;9.30;4.97;;;;;;;10.57;100.00;96363.47;5055187;28;20089;-76
2022/09/23 06:28:30;;;;;;;10.07;5.33;;;;;;;10.17;100.00;96365.81;5067365;28;20028;-77
2022/09/23 06:30:56;;;;;;;8.33;5.80;;;;;;;9.73;100.00;96361.38;5068630;28;20032;-75
2022/09/23 06:33:22;;;;;;;7.03;4.60;;;;;;;10.78;100.00;96364.91;5044525;28;20063;-77
2022/09/23 06:35:48;;;;;;;7.43;4.90;;;;;;;10.48;100.00;96363.59;5064401;28;20036;-74
2022/09/23 06:38:13;;;;;;;8.77;4.57;;;;;;;11.09;100.00;96358.09;5050488;28;20481;-75
2022/09/23 06:40:39;;;;;;;7.57;5.03;;;;;;;10.79;100.00;96366.53;5049499;28;20028;-77
2022/09/23 06:43:04;;;;;;;8.63;4.60;;;;;;;11.22;100.00;96349.75;5066361;28;20036;-76
2022/09/23 06:45:30;;;;;;;8.37;4.50;;;;;;;11.82;100.00;96353.16;5065438;28;20036;-76
2022/09/23 06:47:56;;;;;;;7.67;4.60;;;;;;;11.70;100.00;96352.66;5061678;28;20036;-76
2022/09/23 06:50:26;;;;;;;7.63;4.57;;;;;;;11.34;100.00;96363.47;5067045;28;20428;-76
2022/09/23 06:52:55;;;;;;;7.10;4.47;;;;;;;11.52;100.00;96356.25;5052465;28;20672;-77
2022/09/23 06:55:23;;;;;;;7.23;4.63;;;;;;;12.00;100.00;96354.69;5066699;28;20032;-77
2022/09/23 06:57:48;;;;;;;7.30;4.57;;;;;;;11.74;100.00;96361.91;5060137;28;20100;-74
2022/09/23 07:00:14;;;;;;;7.70;4.80;;;;;;;12.16;100.00;96359.13;5065588;28;20032;-77
2022/09/23 07:02:43;;;;;;;9.90;5.00;;;;;;;12.14;100.00;96357.63;5065101;28;20040;-77
2022/09/23 07:05:09;;;;;;;6.97;4.40;;;;;;;11.94;100.00;96352.72;5070075;28;20067;-76
2022/09/23 07:07:36;;;;;;;6.97;4.13;;;;;;;12.47;100.00;96358.41;5066126;28;20438;-72
2022/09/23 07:10:06;;;;;;;7.73;4.57;;;;;;;12.72;100.00;96352.09;5065973;28;20045;-73
2022/09/23 07:12:32;;;;;;;6.60;4.10;;;;;;;12.58;100.00;96349.34;5064528;28;20028;-76
2022/09/23 07:14:58;;;;;;;6.27;4.07;;;;;;;13.03;100.00;96350.50;5064979;28;20036;-77
2022/09/23 07:17:24;;;;;;;8.17;4.93;;;;;;;12.72;100.00;96361.84;5059883;28;20371;-76
2022/09/23 07:19:57;;;;;;;9.53;5.17;;;;;;;13.23;100.00;96349.09;5048834;28;20035;-77
2022/09/23 07:22:25;;;;;;;7.88;5.55;;;;;;;11.58;100.00;96362.69;5065073;28;20044;-77
2022/09/23 07:24:54;;;;;;;8.60;4.80;;;;;;;12.26;100.00;96367.69;5047812;28;20041;-76
2022/09/23 07:27:25;;;;;;;7.37;4.57;;;;;;;12.89;100.00;96355.50;5062281;28;20405;-77
2022/09/23 07:29:51;;;;;;;9.40;4.67;;;;;;;13.39;100.00;96348.22;5061124;28;20124;-77
2022/09/23 07:32:19;;;;;;;6.97;4.23;;;;;;;14.15;100.00;96359.72;5065714;28;20111;-78
2022/09/23 07:34:45;;;;;;;8.67;5.03;;;;;;;13.63;100.00;96348.06;5064973;28;20409;-77
2022/09/23 07:37:12;;;;;;;6.80;4.57;;;;;;;13.50;100.00;96354.91;5065303;28;20115;-76
2022/09/23 07:39:41;;;;;;;7.07;3.63;;;;;;;13.93;100.00;96350.00;5065293;28;20421;-74
2022/09/23 07:42:07;;;;;;;5.77;4.00;;;;;;;14.31;100.00;96351.66;5066178;28;20043;-77
2022/09/23 07:44:33;;;;;;;7.27;4.57;;;;;;;14.91;98.06;96359.69;5040570;28;20583;-73
2022/09/23 07:46:59;;;;;;;5.90;3.60;;;;;;;15.74;94.35;96351.31;5064224;28;20122;-76
2022/09/23 07:49:26;;;;;;;7.50;4.10;;;;;;;15.23;96.55;96354.00;5068932;28;20062;-77
2022/09/23 07:51:53;;;;;;;10.37;4.50;;;;;;;15.86;90.62;96349.00;5066509;28;20119;-74
2022/09/23 07:54:19;;;;;;;6.27;4.10;;;;;;;15.58;89.06;96351.53;5065173;28;20024;-77
2022/09/23 07:56:45;;;;;;;5.60;3.87;;;;;;;16.48;83.59;96347.47;5057185;28;20047;-77
2022/09/23 07:59:15;;;;;;;6.43;4.17;;;;;;;16.50;84.77;96346.28;5063970;28;20040;-74
2022/09/23 08:01:44;;;;;;;5.93;3.80;;;;;;;16.10;81.44;96349.63;5068299;28;20716;-77
2022/09/23 08:04:16;;;;;;;6.30;3.77;;;;;;;15.93;87.79;96336.63;5065269;28;20082;-77
2022/09/23 08:06:44;;;;;;;6.00;3.67;;;;;;;16.86;81.72;96339.97;5065264;28;20045;-77
2022/09/23 08:09:10;;;;;;;9.00;3.78;;;;;;;16.99;77.96;96346.38;5065649;28;20132;-77
2022/09/23 08:11:40;;;;;;;5.25;3.40;;;;;;;17.55;67.30;96344.38;5065549;28;20100;-77
2022/09/23 08:14:13;;;;;;;5.97;3.10;;;;;;;16.91;73.13;96344.72;5063235;28;20055;-77
2022/09/23 08:16:40;;;;;;;5.80;3.17;;;;;;;17.25;70.04;96345.69;5037741;28;20040;-77
2022/09/23 08:19:07;;;;;;;4.53;2.78;;;;;;;17.05;69.50;96354.41;5063462;28;20035;-77
2022/09/23 08:21:33;;;;;;;8.00;3.75;;;;;;;16.65;70.79;96348.81;5066159;28;20103;-76
2022/09/23 08:23:58;;;;;;;5.55;3.03;;;;;;;16.95;70.71;96348.63;5066437;28;20044;-77
2022/09/23 08:26:24;;;;;;;5.80;2.83;;;;;;;16.87;75.06;96346.94;5056343;28;20025;-77
2022/09/23 08:28:52;;;;;;;4.97;3.00;;;;;;;17.28;71.38;96342.66;5064768;28;20564;-77
2022/09/23 08:31:19;;;;;;;4.22;2.50;;;;;;;17.90;63.46;96342.41;5065414;28;20489;-75
2022/09/23 08:33:45;;;;;;;7.03;2.60;;;;;;;17.16;64.98;96343.19;5061281;28;20029;-77
2022/09/23 08:36:11;;;;;;;4.10;1.88;;;;;;;17.51;61.01;96337.00;5061454;28;20094;-77
2022/09/23 08:38:36;;;;;;;3.85;2.53;;;;;;;17.14;64.15;96347.91;5061374;28;20907;-76
2022/09/23 08:41:17;;;;;;;3.92;2.30;;;;;;;16.77;64.78;96343.81;5047169;28;20394;-76
2022/09/23 08:43:48;;;;;;;5.70;2.75;;;;;;;17.46;65.65;96340.25;5033905;28;20090;-76
2022/09/23 08:46:20;;;;;;;6.25;2.45;;;;;;;18.19;60.13;96340.41;5030751;28;20036;-72
2022/09/23 08:48:47;;;;;;;4.35;2.20;;;;;;;18.36;59.57;96338.97;5031607;28;20036;-77
2022/09/23 08:51:18;;;;;;;4.38;2.40;;;;;;;18.04;59.07;96332.63;5029802;28;21754;-77
2022/09/23 08:53:45;;;;;;;3.47;1.85;;;;;;;18.16;54.76;96332.84;5030136;28;20047;-74
2022/09/23 08:56:16;;;;;;;3.33;1.52;;;;;;;18.71;54.61;96328.09;5031587;28;20113;-73
2022/09/23 08:59:16;;;;;;;4.80;2.55;;;;;;;18.41;53.96;96333.06;5028747;28;20129;-77
2022/09/23 09:01:44;;;;;;;2.28;1.67;;;;;;;18.28;55.87;96333.06;5012985;28;20071;-76
2022/09/23 09:04:35;;;;;;;2.83;1.75;;;;;;;17.54;58.43;96337.44;5031888;28;20043;-73
2022/09/23 09:07:07;;;;;;;3.63;1.45;;;;;;;17.10;61.79;96340.50;5031910;28;20206;-73
2022/09/23 09:09:40;;;;;;;4.13;1.92;;;;;;;17.82;58.66;96339.16;5031095;28;20033;-75
2022/09/23 09:12:27;;;;;;;4.35;2.08;;;;;;;18.24;57.99;96332.66;5050026;28;20039;-77
2022/09/23 09:14:56;;;;;;;3.75;1.60;;;;;;;17.64;59.35;96337.03;5055408;28;20059;-77
2022/09/23 09:17:38;;;;;;;3.55;1.85;;;;;;;17.10;62.41;96330.72;5053946;28;20061;-77
2022/09/23 09:20:10;;;;;;;1.90;1.50;;;;;;;17.56;59.92;96324.72;5036002;28;20041;-73
2022/09/23 09:23:15;;;;;;;2.10;1.33;;;;;;;17.60;61.25;96320.63;5054897;28;20120;-77
2022/09/23 09:25:49;;;;;;;2.75;1.30;;;;;;;17.26;60.42;96328.72;5070657;28;20067;-77
2022/09/23 09:28:40;;;;;;;3.60;1.80;;;;;;;17.72;60.15;96318.22;5052367;28;20509;-76
2022/09/23 09:31:22;;;;;;;4.05;1.80;;;;;;;17.15;62.73;96316.84;5052653;28;20040;-75
2022/09/23 09:34:04;;;;;;;2.90;1.70;;;;;;;18.32;58.86;96313.78;5053694;28;20032;-76
2022/09/23 09:37:05;;;;;;;3.97;1.90;;;;;;;18.21;61.72;96310.91;5055750;28;20098;-75
2022/09/23 09:39:32;;;;;;;5.05;2.45;;;;;;;18.85;57.03;96302.28;5056348;28;20032;-75
2022/09/23 09:41:59;;;;;;;2.95;1.65;;;;;;;19.01;56.45;96307.16;5057446;28;20037;-76
2022/09/23 09:44:46;;;;;;;3.10;1.50;;;;;;;19.15;55.62;96301.72;5056829;28;20159;-76
2022/09/23 09:47:35;;;;;;;5.32;1.75;;;;;;;19.61;55.20;96296.16;5030094;28;20033;-75
2022/09/23 09:50:20;;;;;;;4.05;2.05;;;;;;;19.99;51.30;96298.84;4997523;28;20140;-75
2022/09/23 09:52:47;;;;;;;2.63;1.52;;;;;;;20.62;50.56;96287.25;4993733;28;20517;-76
2022/09/23 09:55:12;;;;;;;2.80;1.88;;;;;;;20.15;53.73;96285.97;4992899;28;20032;-77
2022/09/23 09:57:49;;;;;;;3.42;1.98;;;;;;;19.35;55.57;96286.50;4993419;28;20033;-75
2022/09/23 10:00:20;;;;;;;4.28;1.70;;;;;;;19.24;55.54;96284.47;4993845;28;20490;-75
2022/09/23 10:02:52;;;;;;;3.70;1.80;;;;;;;19.18;54.74;96282.66;4994747;28;20040;-75
2022/09/23 10:05:30;;;;;;;3.65;1.90;;;;;;;18.89;56.61;96287.50;4998715;28;20191;-76
2022/09/23 10:08:13;;;;;;;7.55;2.13;;;;;;;20.13;53.66;96270.19;5010431;28;21313;-75
2022/09/23 10:10:55;;;;;;;4.10;2.00;;;;;;;20.04;53.99;96271.47;4995193;28;20036;-76
2022/09/23 10:13:26;;;;;;;4.00;1.90;;;;;;;20.17;52.27;96273.22;4994260;28;20071;-75
2022/09/23 10:15:55;;;;;;;1.98;1.20;;;;;;;20.45;49.36;96276.25;4998401;28;20032;-76
2022/09/23 10:18:36;;;;;;;4.45;1.70;;;;;;;20.75;46.67;96270.22;5052701;28;20085;-76
2022/09/23 10:21:13;;;;;;;4.65;1.58;;;;;;;20.19;45.39;96276.50;5057399;28;20054;-76
2022/09/23 10:23:45;;;;;;;2.05;1.55;;;;;;;20.45;46.05;96268.22;5057342;28;20029;-75
2022/09/23 10:26:12;;;;;;;3.88;1.27;;;;;;;20.54;46.25;96273.34;5053789;28;20071;-75
2022/09/23 10:28:50;;;;;;;3.42;1.45;;;;;;;21.04;44.97;96274.00;5058377;28;20028;-76
2022/09/23 10:31:23;;;;;;;2.75;1.65;;;;;;;20.98;44.25;96279.44;5056977;28;20055;-76
2022/09/23 10:33:54;;;;;;;3.08;1.63;;;;;;;21.56;44.15;96261.03;5057248;28;20112;-77
2022/09/23 10:36:20;;;;;;;4.03;1.42;;;;;;;22.07;43.72;96264.16;5042573;28;20041;-76
2022/09/23 10:38:54;;;;;;;3.63;1.75;;;;;;;20.89;43.91;96263.72;5030624;28;20035;-77
2022/09/23 10:47:33;;;;;;;4.03;1.48;;;;;;;21.76;42.72;96260.72;5029757;28;20040;-75
2022/09/23 10:50:27;;;;;;;2.50;1.77;;;;;;;21.81;44.92;96254.69;5030185;28;20040;-76
2022/09/23 10:53:01;;;;;;;3.67;1.60;;;;;;;21.75;45.12;96253.72;5029896;28;20082;-75
2022/09/23 10:55:32;;;;;;;3.72;2.03;;;;;;;22.01;44.09;96252.50;5029687;28;20179;-76
2022/09/23 10:58:33;;;;;;;3.05;1.67;;;;;;;22.02;45.31;96253.31;5030846;28;20106;-76
2022/09/23 11:01:46;;;;;;;2.90;1.55;;;;;;;22.50;44.07;96261.19;5029841;28;20032;-76
2022/09/23 11:04:54;;;;;;;3.65;1.65;;;;;;;21.97;44.23;96253.22;5019238;28;20059;-75
2022/09/23 11:07:26;;;;;;;4.07;2.05;;;;;;;21.79;46.14;96254.09;5053088;28;20095;-76
2022/09/23 11:10:18;;;;;;;2.88;1.67;;;;;;;21.74;45.21;96245.94;5055514;28;20037;-76
2022/09/23 11:13:05;;;;;;;3.67;1.55;;;;;;;22.27;44.72;96239.75;5054997;28;20128;-76
2022/09/23 11:16:10;;;;;;;3.53;1.50;;;;;;;21.61;44.09;96238.94;5056113;28;20457;-76
2022/09/23 11:18:51;;;;;;;4.57;1.38;;;;;;;22.10;44.69;96239.59;5041770;28;20045;-76
2022/09/23 11:21:57;;;;;;;3.83;1.80;;;;;;;22.01;43.89;96230.28;5035140;28;20501;-76
2022/09/23 11:24:34;;;;;;;4.20;1.70;;;;;;;22.21;44.77;96233.47;5056253;28;20124;-76
2022/09/23 11:27:18;;;;;;;2.97;1.40;;;;;;;22.29;44.47;96225.06;5036677;28;20486;-76
2022/09/23 11:30:06;;;;;;;4.05;1.70;;;;;;;21.47;45.13;96226.78;5056397;28;20040;-77
2022/09/23 11:32:45;;;;;;;3.95;1.42;;;;;;;22.10;45.05;96226.22;5054814;28;20067;-76
2022/09/23 11:35:24;;;;;;;4.15;1.45;;;;;;;22.76;43.95;96224.19;5051693;28;20120;-76
2022/09/23 11:37:56;;;;;;;2.75;1.38;;;;;;;22.11;43.39;96214.44;5053518;28;20094;-76
2022/09/23 11:40:33;;;;;;;6.60;1.38;;;;;;;23.07;42.47;96209.56;5055874;28;21403;-76
2022/09/23 11:43:14;;;;;;;2.67;1.50;;;;;;;23.25;41.92;96212.06;5053641;28;20037;-76
2022/09/23 11:46:04;;;;;;;3.03;1.40;;;;;;;22.72;41.61;96217.69;5054410;28;20036;-76
2022/09/23 11:48:41;;;;;;;3.70;1.60;;;;;;;22.34;42.85;96217.16;5028641;28;20962;-76
2022/09/23 11:51:18;;;;;;;3.58;1.50;;;;;;;23.13;41.09;96207.81;5026705;28;20043;-76
2022/09/23 11:54:27;;;;;;;3.05;1.55;;;;;;;23.74;39.16;96201.72;5026681;28;20125;-77
2022/09/23 11:56:57;;;;;;;4.97;2.10;;;;;;;23.46;38.36;96199.84;5025004;28;20040;-75
2022/09/23 11:59:40;;;;;;;4.95;1.83;;;;;;;23.28;39.47;96194.69;5039182;28;20032;-74
2022/09/23 12:02:13;;;;;;;;;;;;;;;22.90;41.42;96196.06;5054159;28;20412;-74
2022/09/23 12:04:42;;;;;;;4.18;2.15;;;;;;;23.91;40.27;96195.50;5060404;28;19916;-74
2022/09/23 12:07:38;;;;;;;5.82;2.05;;;;;;;24.13;38.25;96192.91;5032785;28;20116;-73